sensor_id;sensor_type;location;lat;lon;timestamp;pressure;altitude;pressure_sealevel;temperature;humidity
73842;BME280;62184;52.006;5.924;2023-12-29T00:00:21;99872.47;;;18.12;47.52
73842;BME280;62184;52.006;5.924;2023-12-29T00:02:48;99881.97;;;18.18;47.92
73842;BME280;62184;52.006;5.924;2023-12-29T00:05:14;99883.69;;;18.19;47.92
73842;BME280;62184;52.006;5.924;2023-12-29T00:07:41;99883.03;;;18.28;48.00
73842;BME280;62184;52.006;5.924;2023-12-29T00:10:08;99881.84;;;18.32;48.03
73842;BME280;62184;52.006;5.924;2023-12-29T00:12:34;99879.47;;;18.40;47.78
73842;BME280;62184;52.006;5.924;2023-12-29T00:15:04;99873.28;;;18.38;47.50
73842;BME280;62184;52.006;5.924;2023-12-29T00:17:31;99876.50;;;18.43;47.56
73842;BME280;62184;52.006;5.924;2023-12-29T00:19:58;99879.56;;;18.39;46.74
73842;BME280;62184;52.006;5.924;2023-12-29T00:22:24;99867.44;;;18.44;47.65
73842;BME280;62184;52.006;5.924;2023-12-29T00:24:51;99869.16;;;18.45;47.65
73842;BME280;62184;52.006;5.924;2023-12-29T00:27:17;99872.75;;;18.46;47.62
73842;BME280;62184;52.006;5.924;2023-12-29T00:29:43;99868.66;;;18.40;47.79
73842;BME280;62184;52.006;5.924;2023-12-29T00:32:12;99884.13;;;18.25;48.05
73842;BME280;62184;52.006;5.924;2023-12-29T00:34:39;99875.72;;;18.05;48.36
73842;BME280;62184;52.006;5.924;2023-12-29T00:37:05;99864.50;;;17.98;48.86
73842;BME280;62184;52.006;5.924;2023-12-29T00:39:32;99851.94;;;17.97;48.97
73842;BME280;62184;52.006;5.924;2023-12-29T00:41:58;99855.72;;;17.94;49.37
73842;BME280;62184;52.006;5.924;2023-12-29T00:44:25;99840.72;;;17.90;49.01
73842;BME280;62184;52.006;5.924;2023-12-29T00:46:51;99854.00;;;17.93;49.17
73842;BME280;62184;52.006;5.924;2023-12-29T00:49:20;99867.72;;;17.90;49.13
73842;BME280;62184;52.006;5.924;2023-12-29T00:51:47;99861.78;;;17.85;48.92
73842;BME280;62184;52.006;5.924;2023-12-29T00:54:14;99846.97;;;17.78;48.84
73842;BME280;62184;52.006;5.924;2023-12-29T00:56:40;99847.28;;;17.86;49.07
73842;BME280;62184;52.006;5.924;2023-12-29T00:59:07;99847.81;;;17.91;48.75
73842;BME280;62184;52.006;5.924;2023-12-29T01:01:33;99847.06;;;18.02;48.69
73842;BME280;62184;52.006;5.924;2023-12-29T01:04:00;99843.53;;;17.89;48.74
73842;BME280;62184;52.006;5.924;2023-12-29T01:06:29;99836.66;;;18.09;48.54
73842;BME280;62184;52.006;5.924;2023-12-29T01:08:56;99840.47;;;18.06;48.40
73842;BME280;62184;52.006;5.924;2023-12-29T01:11:23;99848.81;;;18.16;48.25
73842;BME280;62184;52.006;5.924;2023-12-29T01:13:49;99836.16;;;18.16;48.28
73842;BME280;62184;52.006;5.924;2023-12-29T01:16:15;99840.34;;;18.20;48.07
73842;BME280;62184;52.006;5.924;2023-12-29T01:18:42;99824.13;;;18.20;47.91
73842;BME280;62184;52.006;5.924;2023-12-29T01:21:08;99807.38;;;18.15;48.43
73842;BME280;62184;52.006;5.924;2023-12-29T01:23:37;99813.22;;;18.22;48.38
73842;BME280;62184;52.006;5.924;2023-12-29T01:26:04;99814.28;;;18.32;48.41
73842;BME280;62184;52.006;5.924;2023-12-29T01:28:30;99818.50;;;18.23;48.74
73842;BME280;62184;52.006;5.924;2023-12-29T01:30:56;99819.25;;;18.25;48.42
73842;BME280;62184;52.006;5.924;2023-12-29T01:33:23;99821.63;;;18.30;48.46
73842;BME280;62184;52.006;5.924;2023-12-29T01:35:49;99822.38;;;18.32;48.90
73842;BME280;62184;52.006;5.924;2023-12-29T01:38:16;99828.09;;;18.27;48.56
73842;BME280;62184;52.006;5.924;2023-12-29T01:40:45;99822.69;;;18.27;48.75
73842;BME280;62184;52.006;5.924;2023-12-29T01:43:13;99826.28;;;18.28;48.88
73842;BME280;62184;52.006;5.924;2023-12-29T01:45:39;99820.44;;;18.21;48.50
73842;BME280;62184;52.006;5.924;2023-12-29T01:48:07;99820.09;;;18.26;48.67
73842;BME280;62184;52.006;5.924;2023-12-29T01:50:35;99816.88;;;18.21;48.83
73842;BME280;62184;52.006;5.924;2023-12-29T01:53:03;99821.94;;;18.25;48.63
73842;BME280;62184;52.006;5.924;2023-12-29T01:55:31;99824.22;;;18.19;49.00
73842;BME280;62184;52.006;5.924;2023-12-29T01:58:01;99813.22;;;18.22;49.15
73842;BME280;62184;52.006;5.924;2023-12-29T02:00:29;99817.66;;;18.23;48.81
73842;BME280;62184;52.006;5.924;2023-12-29T02:02:55;99813.31;;;18.20;49.22
73842;BME280;62184;52.006;5.924;2023-12-29T02:05:23;99825.97;;;18.20;48.79
73842;BME280;62184;52.006;5.924;2023-12-29T02:07:52;99834.41;;;18.15;48.76
73842;BME280;62184;52.006;5.924;2023-12-29T02:10:19;99819.94;;;18.16;48.60
73842;BME280;62184;52.006;5.924;2023-12-29T02:12:47;99825.97;;;18.20;48.93
73842;BME280;62184;52.006;5.924;2023-12-29T02:15:16;99823.25;;;18.20;48.48
73842;BME280;62184;52.006;5.924;2023-12-29T02:17:47;99816.56;;;18.13;48.93
73842;BME280;62184;52.006;5.924;2023-12-29T02:20:19;99837.47;;;17.98;48.63
73842;BME280;62184;52.006;5.924;2023-12-29T02:22:45;99837.78;;;18.06;49.30
73842;BME280;62184;52.006;5.924;2023-12-29T02:25:14;99825.88;;;18.09;49.49
73842;BME280;62184;52.006;5.924;2023-12-29T02:27:46;99831.16;;;18.10;49.12
73842;BME280;62184;52.006;5.924;2023-12-29T02:30:24;99827.06;;;18.05;49.73
73842;BME280;62184;52.006;5.924;2023-12-29T02:32:59;99813.16;;;17.98;49.47
73842;BME280;62184;52.006;5.924;2023-12-29T02:35:28;99823.50;;;17.91;50.07
73842;BME280;62184;52.006;5.924;2023-12-29T02:38:00;99818.03;;;17.80;49.63
73842;BME280;62184;52.006;5.924;2023-12-29T02:40:30;99806.25;;;17.81;50.19
73842;BME280;62184;52.006;5.924;2023-12-29T02:42:57;99812.38;;;17.83;50.26
73842;BME280;62184;52.006;5.924;2023-12-29T02:45:23;99815.84;;;17.85;50.44
73842;BME280;62184;52.006;5.924;2023-12-29T02:47:49;99820.06;;;17.89;50.20
73842;BME280;62184;52.006;5.924;2023-12-29T02:50:16;99818.75;;;17.95;50.03
73842;BME280;62184;52.006;5.924;2023-12-29T02:52:42;99815.41;;;17.91;49.87
73842;BME280;62184;52.006;5.924;2023-12-29T02:55:09;99813.47;;;17.93;50.13
73842;BME280;62184;52.006;5.924;2023-12-29T02:57:39;99802.91;;;17.90;50.01
73842;BME280;62184;52.006;5.924;2023-12-29T03:00:06;99808.41;;;17.89;50.19
73842;BME280;62184;52.006;5.924;2023-12-29T03:02:33;99815.09;;;17.83;49.94
73842;BME280;62184;52.006;5.924;2023-12-29T03:05:00;99812.81;;;17.77;50.64
73842;BME280;62184;52.006;5.924;2023-12-29T03:07:26;99811.53;;;17.70;50.56
73842;BME280;62184;52.006;5.924;2023-12-29T03:09:53;99801.81;;;17.68;50.65
73842;BME280;62184;52.006;5.924;2023-12-29T03:12:19;99810.47;;;17.73;50.78
73842;BME280;62184;52.006;5.924;2023-12-29T03:14:48;99810.78;;;17.68;50.53
73842;BME280;62184;52.006;5.924;2023-12-29T03:17:15;99815.75;;;17.74;50.10
73842;BME280;62184;52.006;5.924;2023-12-29T03:19:41;99796.41;;;17.68;50.56
73842;BME280;62184;52.006;5.924;2023-12-29T03:22:07;99800.84;;;17.69;50.62
73842;BME280;62184;52.006;5.924;2023-12-29T03:24:34;99803.53;;;17.69;50.48
73842;BME280;62184;52.006;5.924;2023-12-29T03:27:01;99804.31;;;17.71;50.57
73842;BME280;62184;52.006;5.924;2023-12-29T03:29:27;99795.78;;;17.64;50.29
73842;BME280;62184;52.006;5.924;2023-12-29T03:31:56;99809.47;;;17.61;50.70
73842;BME280;62184;52.006;5.924;2023-12-29T03:34:23;99795.00;;;17.62;50.30
73842;BME280;62184;52.006;5.924;2023-12-29T03:36:49;99790.78;;;17.58;50.22
73842;BME280;62184;52.006;5.924;2023-12-29T03:39:15;99807.84;;;17.58;50.30
73842;BME280;62184;52.006;5.924;2023-12-29T03:41:42;99804.84;;;17.63;50.55
73842;BME280;62184;52.006;5.924;2023-12-29T03:44:08;99822.22;;;17.59;50.21
73842;BME280;62184;52.006;5.924;2023-12-29T03:46:35;99826.03;;;17.56;50.38
73842;BME280;62184;52.006;5.924;2023-12-29T03:49:04;99814.25;;;17.58;50.49
73842;BME280;62184;52.006;5.924;2023-12-29T03:51:31;99814.69;;;17.64;50.19
73842;BME280;62184;52.006;5.924;2023-12-29T03:53:57;99804.94;;;17.49;50.87
73842;BME280;62184;52.006;5.924;2023-12-29T03:56:24;99813.72;;;17.65;50.17
73842;BME280;62184;52.006;5.924;2023-12-29T03:58:50;99792.97;;;17.66;49.98
73842;BME280;62184;52.006;5.924;2023-12-29T04:01:17;99806.13;;;17.70;49.92
73842;BME280;62184;52.006;5.924;2023-12-29T04:03:43;99807.34;;;17.66;49.94
73842;BME280;62184;52.006;5.924;2023-12-29T04:06:12;99808.41;;;17.64;49.84
73842;BME280;62184;52.006;5.924;2023-12-29T04:08:39;99795.78;;;17.64;50.37
73842;BME280;62184;52.006;5.924;2023-12-29T04:11:05;99799.44;;;17.63;50.33
73842;BME280;62184;52.006;5.924;2023-12-29T04:13:32;99798.56;;;17.63;49.97
73842;BME280;62184;52.006;5.924;2023-12-29T04:15:58;99793.63;;;17.56;49.92
73842;BME280;62184;52.006;5.924;2023-12-29T04:18:25;99792.41;;;17.61;49.10
73842;BME280;62184;52.006;5.924;2023-12-29T04:20:51;99787.13;;;17.59;49.62
73842;BME280;62184;52.006;5.924;2023-12-29T04:23:20;99783.84;;;17.54;49.25
73842;BME280;62184;52.006;5.924;2023-12-29T04:25:47;99795.66;;;17.66;49.65
73842;BME280;62184;52.006;5.924;2023-12-29T04:28:13;99793.69;;;17.68;49.31
73842;BME280;62184;52.006;5.924;2023-12-29T04:30:40;99788.09;;;17.71;49.02
73842;BME280;62184;52.006;5.924;2023-12-29T04:33:06;99794.03;;;17.76;49.42
73842;BME280;62184;52.006;5.924;2023-12-29T04:35:32;99792.41;;;17.86;48.68
73842;BME280;62184;52.006;5.924;2023-12-29T04:37:59;99800.19;;;17.90;48.87
73842;BME280;62184;52.006;5.924;2023-12-29T04:40:28;99803.75;;;17.91;49.10
73842;BME280;62184;52.006;5.924;2023-12-29T04:42:54;99803.09;;;17.87;48.94
73842;BME280;62184;52.006;5.924;2023-12-29T04:45:21;99800.28;;;17.89;48.68
73842;BME280;62184;52.006;5.924;2023-12-29T04:47:47;99823.25;;;17.44;49.30
73842;BME280;62184;52.006;5.924;2023-12-29T04:50:14;99806.06;;;17.19;50.11
73842;BME280;62184;52.006;5.924;2023-12-29T04:52:40;99804.31;;;17.18;50.29
73842;BME280;62184;52.006;5.924;2023-12-29T04:55:07;99798.94;;;17.18;50.76
73842;BME280;62184;52.006;5.924;2023-12-29T04:57:36;99808.97;;;17.16;50.11
73842;BME280;62184;52.006;5.924;2023-12-29T05:00:04;99808.66;;;17.21;50.55
73842;BME280;62184;52.006;5.924;2023-12-29T05:02:31;99815.34;;;17.15;50.47
73842;BME280;62184;52.006;5.924;2023-12-29T05:04:57;99815.78;;;17.22;50.24
73842;BME280;62184;52.006;5.924;2023-12-29T05:07:24;99812.53;;;17.17;50.43
73842;BME280;62184;52.006;5.924;2023-12-29T05:09:50;99802.94;;;17.26;50.43
73842;BME280;62184;52.006;5.924;2023-12-29T05:12:17;99815.69;;;17.24;50.22
73842;BME280;62184;52.006;5.924;2023-12-29T05:14:46;99790.53;;;17.36;50.14
73842;BME280;62184;52.006;5.924;2023-12-29T05:17:12;99799.59;;;17.35;50.05
73842;BME280;62184;52.006;5.924;2023-12-29T05:19:39;99793.97;;;17.25;49.74
73842;BME280;62184;52.006;5.924;2023-12-29T05:22:05;99801.75;;;17.30;49.69
73842;BME280;62184;52.006;5.924;2023-12-29T05:24:31;99793.97;;;17.25;49.80
73842;BME280;62184;52.006;5.924;2023-12-29T05:26:58;99786.00;;;17.24;49.62
73842;BME280;62184;52.006;5.924;2023-12-29T05:29:24;99791.41;;;17.24;49.82
73842;BME280;62184;52.006;5.924;2023-12-29T05:31:54;99806.41;;;17.28;49.82
73842;BME280;62184;52.006;5.924;2023-12-29T05:34:21;99795.59;;;17.28;49.55
73842;BME280;62184;52.006;5.924;2023-12-29T05:36:47;99810.72;;;17.30;49.58
73842;BME280;62184;52.006;5.924;2023-12-29T05:39:14;99815.34;;;17.28;49.94
73842;BME280;62184;52.006;5.924;2023-12-29T05:41:40;99809.28;;;17.25;49.74
73842;BME280;62184;52.006;5.924;2023-12-29T05:44:07;99815.69;;;17.24;49.46
73842;BME280;62184;52.006;5.924;2023-12-29T05:46:33;99810.16;;;17.25;50.26
73842;BME280;62184;52.006;5.924;2023-12-29T05:49:02;99809.97;;;17.28;49.85
73842;BME280;62184;52.006;5.924;2023-12-29T05:51:29;99813.63;;;17.27;49.94
73842;BME280;62184;52.006;5.924;2023-12-29T05:53:56;99816.66;;;17.23;49.86
73842;BME280;62184;52.006;5.924;2023-12-29T05:56:22;99811.16;;;17.24;49.64
73842;BME280;62184;52.006;5.924;2023-12-29T05:58:49;99826.59;;;17.22;49.68
73842;BME280;62184;52.006;5.924;2023-12-29T06:01:15;99826.78;;;17.19;49.55
73842;BME280;62184;52.006;5.924;2023-12-29T06:03:42;99816.84;;;17.19;49.68
73842;BME280;62184;52.006;5.924;2023-12-29T06:06:11;99825.50;;;17.25;50.05
73842;BME280;62184;52.006;5.924;2023-12-29T06:08:37;99813.38;;;17.17;49.80
73842;BME280;62184;52.006;5.924;2023-12-29T06:11:04;99816.94;;;17.18;49.73
73842;BME280;62184;52.006;5.924;2023-12-29T06:13:30;99824.19;;;17.17;49.63
73842;BME280;62184;52.006;5.924;2023-12-29T06:15:57;99829.59;;;17.17;49.86
73842;BME280;62184;52.006;5.924;2023-12-29T06:18:24;99817.72;;;17.20;50.18
73842;BME280;62184;52.006;5.924;2023-12-29T06:20:50;99817.06;;;17.16;50.29
73842;BME280;62184;52.006;5.924;2023-12-29T06:23:20;99825.91;;;17.18;50.06
73842;BME280;62184;52.006;5.924;2023-12-29T06:25:46;99813.00;;;17.24;49.99
73842;BME280;62184;52.006;5.924;2023-12-29T06:28:13;99816.75;;;17.21;49.62
73842;BME280;62184;52.006;5.924;2023-12-29T06:30:39;99818.78;;;17.17;50.28
73842;BME280;62184;52.006;5.924;2023-12-29T06:33:06;99809.97;;;17.15;49.88
73842;BME280;62184;52.006;5.924;2023-12-29T06:35:32;99815.34;;;17.15;49.82
73842;BME280;62184;52.006;5.924;2023-12-29T06:37:59;99825.91;;;17.18;50.19
73842;BME280;62184;52.006;5.924;2023-12-29T06:40:28;99820.97;;;17.25;50.12
73842;BME280;62184;52.006;5.924;2023-12-29T06:42:55;99817.28;;;17.26;50.19
73842;BME280;62184;52.006;5.924;2023-12-29T06:45:21;99828.09;;;17.26;50.35
73842;BME280;62184;52.006;5.924;2023-12-29T06:47:48;99825.63;;;17.23;50.05
73842;BME280;62184;52.006;5.924;2023-12-29T06:50:14;99812.84;;;17.12;49.92
73842;BME280;62184;52.006;5.924;2023-12-29T06:52:41;99829.59;;;17.17;50.48
73842;BME280;62184;52.006;5.924;2023-12-29T06:55:08;99823.13;;;17.20;50.52
73842;BME280;62184;52.006;5.924;2023-12-29T06:57:37;99835.66;;;17.21;50.67
73842;BME280;62184;52.006;5.924;2023-12-29T07:00:05;99823.22;;;17.18;50.60
73842;BME280;62184;52.006;5.924;2023-12-29T07:02:33;99837.16;;;17.25;50.63
73842;BME280;62184;52.006;5.924;2023-12-29T07:04:59;99840.63;;;17.27;50.66
73842;BME280;62184;52.006;5.924;2023-12-29T07:07:26;99818.16;;;17.27;50.82
73842;BME280;62184;52.006;5.924;2023-12-29T07:09:52;99822.25;;;17.19;50.94
73842;BME280;62184;52.006;5.924;2023-12-29T07:12:19;99818.44;;;17.09;51.31
73842;BME280;62184;52.006;5.924;2023-12-29T07:14:49;99811.41;;;16.94;51.07
73842;BME280;62184;52.006;5.924;2023-12-29T07:17:15;99805.75;;;16.85;51.35
73842;BME280;62184;52.006;5.924;2023-12-29T07:19:42;99814.16;;;16.80;51.75
73842;BME280;62184;52.006;5.924;2023-12-29T07:22:08;99816.09;;;16.78;51.99
73842;BME280;62184;52.006;5.924;2023-12-29T07:24:35;99811.13;;;16.72;52.38
73842;BME280;62184;52.006;5.924;2023-12-29T07:27:02;99803.88;;;16.58;52.18
73842;BME280;62184;52.006;5.924;2023-12-29T07:29:29;99817.88;;;16.51;52.93
73842;BME280;62184;52.006;5.924;2023-12-29T07:31:59;99810.09;;;16.46;52.77
73842;BME280;62184;52.006;5.924;2023-12-29T07:34:25;99817.50;;;16.42;52.98
73842;BME280;62184;52.006;5.924;2023-12-29T07:36:52;99815.03;;;16.39;53.40
73842;BME280;62184;52.006;5.924;2023-12-29T07:39:19;99828.50;;;16.39;53.52
73842;BME280;62184;52.006;5.924;2023-12-29T07:41:45;99808.56;;;16.42;53.49
73842;BME280;62184;52.006;5.924;2023-12-29T07:44:12;99809.25;;;16.45;53.85
73842;BME280;62184;52.006;5.924;2023-12-29T07:46:39;99812.78;;;16.46;53.63
73842;BME280;62184;52.006;5.924;2023-12-29T07:49:09;99814.44;;;16.49;53.47
73842;BME280;62184;52.006;5.924;2023-12-29T07:51:39;99816.38;;;16.47;53.78
73842;BME280;62184;52.006;5.924;2023-12-29T07:54:05;99809.25;;;16.45;54.02
73842;BME280;62184;52.006;5.924;2023-12-29T07:56:32;99816.78;;;16.40;53.87
73842;BME280;62184;52.006;5.924;2023-12-29T07:58:58;99813.09;;;16.41;54.14
73842;BME280;62184;52.006;5.924;2023-12-29T08:01:25;99820.31;;;16.41;54.26
73842;BME280;62184;52.006;5.924;2023-12-29T08:03:51;99823.78;;;16.43;54.68
73842;BME280;62184;52.006;5.924;2023-12-29T08:06:20;99826.19;;;16.48;54.53
73842;BME280;62184;52.006;5.924;2023-12-29T08:08:47;99816.91;;;16.52;54.49
73842;BME280;62184;52.006;5.924;2023-12-29T08:11:13;99831.16;;;16.54;54.93
73842;BME280;62184;52.006;5.924;2023-12-29T08:13:40;99815.09;;;16.52;54.25
73842;BME280;62184;52.006;5.924;2023-12-29T08:16:06;99829.53;;;16.51;54.62
73842;BME280;62184;52.006;5.924;2023-12-29T08:18:33;99824.53;;;16.45;54.46
73842;BME280;62184;52.006;5.924;2023-12-29T08:20:59;99840.63;;;16.47;54.55
73842;BME280;62184;52.006;5.924;2023-12-29T08:23:28;99837.94;;;16.47;54.83
73842;BME280;62184;52.006;5.924;2023-12-29T08:25:56;99833.31;;;16.49;54.82
73842;BME280;62184;52.006;5.924;2023-12-29T08:28:22;99819.59;;;16.52;54.66
73842;BME280;62184;52.006;5.924;2023-12-29T08:30:49;99807.13;;;16.36;54.13
73842;BME280;62184;52.006;5.924;2023-12-29T08:33:15;99809.28;;;16.17;54.76
73842;BME280;62184;52.006;5.924;2023-12-29T08:35:42;99820.88;;;16.05;55.20
73842;BME280;62184;52.006;5.924;2023-12-29T08:38:09;99831.63;;;16.05;55.55
73842;BME280;62184;52.006;5.924;2023-12-29T08:40:39;99842.00;;;16.11;55.86
73842;BME280;62184;52.006;5.924;2023-12-29T08:43:06;99850.56;;;16.18;55.92
73842;BME280;62184;52.006;5.924;2023-12-29T08:45:32;99851.16;;;16.23;55.93
73842;BME280;62184;52.006;5.924;2023-12-29T08:47:59;99843.63;;;16.28;56.21
73842;BME280;62184;52.006;5.924;2023-12-29T08:50:25;99837.84;;;16.34;56.11
73842;BME280;62184;52.006;5.924;2023-12-29T08:52:51;99833.66;;;16.71;54.56
73842;BME280;62184;52.006;5.924;2023-12-29T08:55:18;99848.91;;;16.85;53.70
73842;BME280;62184;52.006;5.924;2023-12-29T08:57:47;99816.25;;;16.89;53.62
73842;BME280;62184;52.006;5.924;2023-12-29T09:00:14;99807.72;;;16.95;53.25
73842;BME280;62184;52.006;5.924;2023-12-29T09:02:40;99808.06;;;17.03;53.49
73842;BME280;62184;52.006;5.924;2023-12-29T09:05:07;99809.47;;;17.09;53.57
73842;BME280;62184;52.006;5.924;2023-12-29T09:07:34;99806.78;;;17.09;53.75
73842;BME280;62184;52.006;5.924;2023-12-29T09:10:00;99810.16;;;17.12;53.30
73842;BME280;62184;52.006;5.924;2023-12-29T09:12:27;99816.09;;;17.17;53.33
73842;BME280;62184;52.006;5.924;2023-12-29T09:14:56;99823.44;;;17.15;52.51
73842;BME280;62184;52.006;5.924;2023-12-29T09:17:22;99840.38;;;17.17;52.71
73842;BME280;62184;52.006;5.924;2023-12-29T09:19:49;99829.81;;;17.27;53.13
73842;BME280;62184;52.006;5.924;2023-12-29T09:22:15;99831.03;;;17.36;52.66
73842;BME280;62184;52.006;5.924;2023-12-29T09:24:41;99843.22;;;17.41;52.69
73842;BME280;62184;52.006;5.924;2023-12-29T09:27:08;99827.69;;;17.45;52.83
73842;BME280;62184;52.006;5.924;2023-12-29T09:29:34;99830.19;;;17.48;53.39
73842;BME280;62184;52.006;5.924;2023-12-29T09:32:04;99825.75;;;17.47;52.33
73842;BME280;62184;52.006;5.924;2023-12-29T09:34:31;99829.31;;;17.47;52.29
73842;BME280;62184;52.006;5.924;2023-12-29T09:36:57;99830.59;;;17.42;52.12
73842;BME280;62184;52.006;5.924;2023-12-29T09:39:24;99829.97;;;17.51;52.25
73842;BME280;62184;52.006;5.924;2023-12-29T09:41:52;99846.06;;;17.40;51.77
73842;BME280;62184;52.006;5.924;2023-12-29T09:44:21;99836.13;;;17.40;52.11
73842;BME280;62184;52.006;5.924;2023-12-29T09:46:49;99846.78;;;17.42;52.16
73842;BME280;62184;52.006;5.924;2023-12-29T09:49:21;99848.22;;;17.47;52.06
73842;BME280;62184;52.006;5.924;2023-12-29T09:51:50;99846.50;;;17.46;52.43
73842;BME280;62184;52.006;5.924;2023-12-29T09:54:17;99850.38;;;17.55;52.59
73842;BME280;62184;52.006;5.924;2023-12-29T09:56:44;99859.91;;;17.61;51.59
73842;BME280;62184;52.006;5.924;2023-12-29T09:59:12;99858.66;;;17.66;51.72
73842;BME280;62184;52.006;5.924;2023-12-29T10:01:41;99876.78;;;17.64;51.85
73842;BME280;62184;52.006;5.924;2023-12-29T10:04:09;99862.06;;;17.55;52.04
73842;BME280;62184;52.006;5.924;2023-12-29T10:06:41;99867.94;;;17.62;51.59
73842;BME280;62184;52.006;5.924;2023-12-29T10:09:12;99869.22;;;17.69;52.37
73842;BME280;62184;52.006;5.924;2023-12-29T10:11:42;99866.22;;;17.74;51.93
73842;BME280;62184;52.006;5.924;2023-12-29T10:14:21;99859.50;;;17.79;51.94
73842;BME280;62184;52.006;5.924;2023-12-29T10:16:53;99857.88;;;17.77;51.80
73842;BME280;62184;52.006;5.924;2023-12-29T10:19:31;99848.91;;;17.76;51.85
73842;BME280;62184;52.006;5.924;2023-12-29T10:22:24;99860.69;;;17.75;51.13
73842;BME280;62184;52.006;5.924;2023-12-29T10:24:56;99863.50;;;17.86;51.99
73842;BME280;62184;52.006;5.924;2023-12-29T10:27:23;99863.41;;;17.88;50.88
73842;BME280;62184;52.006;5.924;2023-12-29T10:29:52;99864.91;;;17.92;52.10
73842;BME280;62184;52.006;5.924;2023-12-29T10:32:18;99855.41;;;17.99;52.13
73842;BME280;62184;52.006;5.924;2023-12-29T10:34:44;99869.91;;;17.98;51.26
73842;BME280;62184;52.006;5.924;2023-12-29T10:37:22;99857.13;;;17.87;50.83
73842;BME280;62184;52.006;5.924;2023-12-29T10:39:55;99867.50;;;17.93;51.78
73842;BME280;62184;52.006;5.924;2023-12-29T10:42:22;99855.94;;;17.91;51.12
73842;BME280;62184;52.006;5.924;2023-12-29T10:45:04;99857.78;;;17.91;51.12
73842;BME280;62184;52.006;5.924;2023-12-29T10:47:31;99858.41;;;17.94;52.05
73842;BME280;62184;52.006;5.924;2023-12-29T10:49:58;99866.94;;;18.01;51.73
73842;BME280;62184;52.006;5.924;2023-12-29T10:52:28;99870.31;;;18.05;51.93
73842;BME280;62184;52.006;5.924;2023-12-29T10:55:04;99867.06;;;18.12;51.61
73842;BME280;62184;52.006;5.924;2023-12-29T10:57:32;99866.00;;;18.15;51.58
73842;BME280;62184;52.006;5.924;2023-12-29T10:59:59;99866.41;;;18.09;50.59
73842;BME280;62184;52.006;5.924;2023-12-29T11:02:26;99864.69;;;18.08;50.93
73842;BME280;62184;52.006;5.924;2023-12-29T11:05:01;99866.00;;;17.64;52.56
73842;BME280;62184;52.006;5.924;2023-12-29T11:07:34;99868.72;;;17.50;52.77
73842;BME280;62184;52.006;5.924;2023-12-29T11:10:04;99863.56;;;17.47;52.72
73842;BME280;62184;52.006;5.924;2023-12-29T11:12:32;99866.44;;;17.44;52.79
73842;BME280;62184;52.006;5.924;2023-12-29T11:15:01;99880.53;;;17.49;53.44
73842;BME280;62184;52.006;5.924;2023-12-29T11:17:30;99876.72;;;17.51;53.52
73842;BME280;62184;52.006;5.924;2023-12-29T11:19:59;99868.72;;;17.37;51.60
73842;BME280;62184;52.006;5.924;2023-12-29T11:22:28;99878.66;;;17.37;52.75
73842;BME280;62184;52.006;5.924;2023-12-29T11:24:58;99881.53;;;17.34;53.19
73842;BME280;62184;52.006;5.924;2023-12-29T11:27:29;99874.00;;;17.39;53.09
73842;BME280;62184;52.006;5.924;2023-12-29T11:29:58;99885.88;;;17.36;52.05
73842;BME280;62184;52.006;5.924;2023-12-29T11:32:39;99877.16;;;17.45;53.08
73842;BME280;62184;52.006;5.924;2023-12-29T11:35:13;99864.72;;;17.43;51.94
73842;BME280;62184;52.006;5.924;2023-12-29T11:38:02;99873.81;;;17.54;53.16
73842;BME280;62184;52.006;5.924;2023-12-29T11:40:52;99883.22;;;17.49;51.06
73842;BME280;62184;52.006;5.924;2023-12-29T11:43:28;99877.19;;;17.58;51.43
73842;BME280;62184;52.006;5.924;2023-12-29T11:45:55;99876.34;;;17.70;52.46
73842;BME280;62184;52.006;5.924;2023-12-29T11:48:54;99870.19;;;17.68;51.85
73842;BME280;62184;52.006;5.924;2023-12-29T11:51:28;99870.00;;;17.71;52.29
73842;BME280;62184;52.006;5.924;2023-12-29T11:53:56;99868.59;;;17.78;52.23
73842;BME280;62184;52.006;5.924;2023-12-29T11:56:30;99875.72;;;17.79;50.90
73842;BME280;62184;52.006;5.924;2023-12-29T11:59:12;99877.03;;;17.74;51.81
73842;BME280;62184;52.006;5.924;2023-12-29T12:01:39;99882.63;;;17.83;52.52
73842;BME280;62184;52.006;5.924;2023-12-29T12:04:33;99867.06;;;17.87;50.27
73842;BME280;62184;52.006;5.924;2023-12-29T12:07:00;99871.94;;;17.82;50.58
73842;BME280;62184;52.006;5.924;2023-12-29T12:09:27;99875.50;;;17.82;51.58
73842;BME280;62184;52.006;5.924;2023-12-29T12:11:56;99880.69;;;17.85;51.53
73842;BME280;62184;52.006;5.924;2023-12-29T12:14:43;99880.59;;;18.00;51.96
73842;BME280;62184;52.006;5.924;2023-12-29T12:17:31;99879.19;;;18.07;52.70
73842;BME280;62184;52.006;5.924;2023-12-29T12:20:02;99868.69;;;18.02;51.19
73842;BME280;62184;52.006;5.924;2023-12-29T12:22:31;99849.69;;;17.91;51.09
73842;BME280;62184;52.006;5.924;2023-12-29T12:24:58;99858.75;;;17.90;51.40
73842;BME280;62184;52.006;5.924;2023-12-29T12:27:28;99862.53;;;17.87;51.28
73842;BME280;62184;52.006;5.924;2023-12-29T12:29:55;99871.16;;;17.92;51.55
73842;BME280;62184;52.006;5.924;2023-12-29T12:32:22;99849.25;;;17.97;49.32
73842;BME280;62184;52.006;5.924;2023-12-29T12:34:49;99869.03;;;17.98;50.33
73842;BME280;62184;52.006;5.924;2023-12-29T12:37:18;99866.31;;;17.98;51.28
73842;BME280;62184;52.006;5.924;2023-12-29T12:39:45;99856.69;;;18.06;50.96
73842;BME280;62184;52.006;5.924;2023-12-29T12:42:13;99853.66;;;18.11;51.16
73842;BME280;62184;52.006;5.924;2023-12-29T12:44:47;99860.03;;;18.10;49.75
73842;BME280;62184;52.006;5.924;2023-12-29T12:47:25;99857.78;;;18.16;52.58
73842;BME280;62184;52.006;5.924;2023-12-29T12:49:59;99847.91;;;18.28;51.51
73842;BME280;62184;52.006;5.924;2023-12-29T12:52:30;99856.47;;;18.22;50.54
73842;BME280;62184;52.006;5.924;2023-12-29T12:54:58;99840.25;;;18.22;52.11
73842;BME280;62184;52.006;5.924;2023-12-29T12:57:25;99842.94;;;18.22;52.09
73842;BME280;62184;52.006;5.924;2023-12-29T12:59:54;99842.19;;;18.20;51.52
73842;BME280;62184;52.006;5.924;2023-12-29T13:02:22;99840.03;;;18.12;51.43
73842;BME280;62184;52.006;5.924;2023-12-29T13:04:50;99844.91;;;18.07;50.75